Date,TemperatureHighF,TemperatureAvgF,TemperatureLowF,DewpointHighF,DewpointAvgF,DewpointLowF,HumidityHigh,HumidityAvg,HumidityLow,PressureMaxIn,PressureMinIn,WindSpeedMaxMPH,WindSpeedAvgMPH,GustSpeedMaxMPH,PrecipitationSumIn
2013-1-1,41.7,38.1,34.5,35.4,31.2,27.1,78,76,75,29.50,29.41,6,0,6,0.00
2013-1-2,34.5,34.0,33.6,28.2,27.7,26.7,79,77,75,29.41,29.24,0,0,0,0.00
2013-1-3,36.1,34.8,33.8,25.5,22.8,20.3,68,61,54,29.15,29.12,10,1,10,0.00
2013-1-4,42.3,41.0,34.3,34.9,33.7,24.9,76,75,68,29.33,29.15,4,0,5,0.00
2013-1-5,44.1,42.9,41.7,37.3,36.1,34.5,77,77,76,29.21,29.12,6,0,6,0.00
2013-1-6,41.5,39.9,39.2,34.2,32.9,32.3,76,76,74,29.12,28.94,4,0,4,0.00
2013-1-7,50.7,43.8,39.7,43.8,23.0,12.6,77,46,27,29.21,28.94,20,2,20,0.12
2013-1-8,47.5,43.6,39.4,41.3,34.2,23.3,79,70,48,29.21,28.71,8,0,8,1.46
2013-1-9,47.8,42.3,32.5,41.7,36.0,24.7,80,78,69,28.97,28.74,5,0,5,0.31
2013-1-10,37.4,34.3,31.5,30.5,27.4,24.1,78,76,73,29.21,28.97,9,0,9,0.04
2013-1-11,35.1,30.4,26.2,28.9,21.8,16.1,78,70,60,29.39,29.21,0,0,0,0.31
2013-1-12,33.4,28.3,25.5,23.0,18.0,14.3,70,65,58,29.47,29.36,4,0,4,0.00
2013-1-13,34.9,30.8,25.7,26.3,21.3,15.6,72,67,61,29.50,29.47,5,0,5,0.00
2013-1-14,38.5,35.2,33.3,30.1,26.9,24.5,75,71,67,29.59,29.47,4,0,4,0.16
2013-1-15,39.7,35.4,32.9,33.5,28.3,25.9,78,75,70,29.74,29.59,5,0,5,0.31
2013-1-16,36.1,35.7,35.4,28.0,25.5,24.6,74,66,63,29.71,29.56,5,0,5,0.00
2013-1-17,40.8,37.4,34.3,33.3,28.4,20.9,75,70,58,29.47,29.33,6,1,6,0.00
2013-1-18,34.3,33.8,32.7,22.0,21.4,20.8,62,60,58,29.33,29.30,4,0,4,0.00
2013-1-19,39.6,37.2,33.4,33.0,30.4,26.7,77,76,76,29.41,29.39,5,1,5,0.00
2013-1-20,37.0,36.3,34.9,30.8,29.8,27.6,78,77,75,29.36,29.33,0,0,0,0.00
2013-1-21,36.7,35.1,34.0,27.7,26.6,25.9,74,71,68,29.33,29.24,5,0,5,0.00
2013-1-22,37.8,36.6,35.8,31.4,30.4,29.1,78,78,77,29.12,28.97,5,0,5,0.00
2013-1-23,42.3,39.7,37.8,35.2,33.2,31.5,78,77,76,29.00,28.88,8,2,8,0.00
2013-1-24,39.7,38.4,37.6,33.5,32.1,31.0,78,78,77,29.03,29.03,3,0,3,0.08
2013-1-25,46.9,38.8,37.0,40.9,31.4,29.0,80,74,73,29.12,28.94,3,0,3,0.00
2013-1-26,39.7,38.7,37.2,32.8,31.5,29.5,76,75,74,28.94,28.91,0,0,0,0.08
2013-1-27,38.8,38.4,37.9,32.3,31.9,31.4,77,77,77,29.03,29.03,6,0,6,0.08
2013-1-28,45.3,43.0,41.2,24.4,20.3,16.9,51,40,32,29.15,29.06,23,6,23,0.04
2013-1-29,46.4,45.3,44.2,28.1,21.7,18.9,51,39,33,29.33,29.15,20,5,20,0.00
2013-1-30,48.2,47.5,47.3,40.3,39.6,39.3,74,74,74,29.44,29.41,4,0,4,0.04
2013-1-31,48.4,48.2,47.8,41.2,41.0,40.7,77,76,76,29.36,29.36,0,0,0,0.16
2013-2-1,44.4,44.2,44.1,34.6,34.1,33.6,69,67,66,29.47,29.44,5,0,5,0.00
2013-2-3,43.7,40.9,36.1,34.4,32.4,28.8,76,72,68,29.36,29.30,4,0,4,0.04
2013-2-4,44.1,43.3,42.4,37.3,36.6,35.8,77,77,76,29.06,28.91,6,0,6,0.04
2013-2-5,48.2,47.7,46.9,41.7,38.9,34.8,79,71,62,28.88,28.85,6,1,6,0.00
2013-2-6,40.8,40.5,39.9,34.2,33.8,33.0,77,77,76,28.77,28.74,4,2,4,0.24
2013-2-7,41.4,41.1,40.6,34.0,26.0,24.9,77,55,52,29.12,28.74,3,0,3,0.32
2013-2-8,41.9,41.7,41.5,21.6,21.4,21.3,44,44,44,29.33,29.33,6,2,6,0.00
2013-2-10,43.3,42.9,42.3,24.6,24.2,23.8,49,47,46,29.41,29.39,4,0,4,0.00
2013-2-12,49.1,45.6,40.5,38.7,32.9,28.9,72,61,50,29.41,29.33,8,2,8,0.04
2013-2-13,42.8,42.6,42.4,32.2,30.9,29.7,66,63,60,29.53,29.36,3,0,3,0.00
2013-2-14,46.0,45.5,45.1,37.2,36.4,35.6,71,70,69,29.59,29.59,5,0,5,0.08
2013-2-15,44.1,43.7,43.3,37.3,36.7,36.3,77,76,76,29.39,29.30,3,0,3,0.00
2013-2-17,42.4,41.3,37.9,22.4,20.4,19.1,53,43,40,29.27,29.21,8,1,8,0.00
2013-2-18,44.1,41.8,36.5,22.9,21.2,20.4,57,44,40,28.97,28.79,8,2,8,0.00
2013-2-19,42.3,41.1,40.3,25.4,24.6,23.3,53,52,49,28.94,28.94,4,0,4,0.00
2013-2-20,42.3,41.3,40.6,27.5,25.0,20.8,59,52,43,29.06,29.06,8,2,8,0.00
2013-2-21,45.1,41.6,39.0,33.2,26.6,24.1,71,55,46,29.12,29.03,8,1,8,0.04
2013-2-22,47.7,40.1,35.2,40.0,27.7,14.2,76,62,40,28.82,28.71,17,3,17,0.08
2013-2-23,44.2,43.3,42.1,15.4,13.7,12.0,31,30,29,29.33,29.24,14,5,14,0.00
2013-2-24,47.3,46.5,45.5,15.4,15.1,14.7,29,28,27,29.18,29.15,8,2,8,0.00
2013-2-25,48.2,43.4,37.4,13.1,6.3,1.0,28,21,19,29.30,29.00,30,8,30,0.04
2013-2-27,44.8,42.1,35.6,23.7,21.0,19.1,61,43,37,29.33,29.24,6,0,6,0.00
2013-2-28,46.0,44.9,44.2,38.4,37.0,35.1,76,74,70,29.33,29.21,0,0,0,0.08
2013-3-1,54.0,50.7,48.2,32.0,31.2,29.7,53,47,40,29.33,29.30,9,1,9,0.04
2013-3-2,46.6,39.1,34.5,37.3,24.4,13.4,71,56,40,29.27,29.15,19,3,19,0.16
2013-3-3,48.0,38.7,32.4,20.4,15.1,9.6,58,39,28,29.36,29.27,14,2,14,0.00
2013-3-4,41.7,33.7,30.9,23.4,19.0,16.4,59,55,39,29.36,29.15,9,1,9,0.00
2013-3-6,40.1,39.2,38.1,32.8,31.6,29.2,75,74,70,28.79,28.74,0,0,0,0.31
2013-3-7,45.3,42.6,39.0,37.9,29.2,25.1,75,59,49,29.15,29.12,0,0,0,0.31
2013-3-8,42.8,42.4,42.3,24.6,23.9,23.0,49,48,46,29.21,29.21,0,0,0,0.00
2013-3-9,47.1,43.9,41.0,23.9,21.5,19.0,46,41,38,29.56,29.50,0,0,0,0.00
2013-3-10,41.2,40.9,40.6,30.7,30.2,29.8,66,65,65,29.53,29.50,0,0,0,0.00
2013-3-11,40.3,40.0,39.9,33.7,33.4,33.3,77,77,77,29.44,29.44,0,0,0,0.00
2013-3-14,48.7,48.5,48.0,29.8,29.6,29.4,49,48,47,29.09,29.09,0,0,0,0.35
2013-3-15,50.7,47.7,45.1,41.5,36.8,35.0,72,66,60,29.27,29.18,3,0,3,0.00
2013-3-16,38.5,36.1,34.0,25.4,19.4,16.8,59,50,44,29.03,28.94,15,3,15,0.24
2013-3-17,42.1,37.2,35.8,17.0,13.6,7.7,45,38,29,29.24,29.03,19,6,19,0.00
2013-3-18,51.3,45.3,39.6,15.9,12.9,8.0,37,28,19,29.30,29.24,19,4,19,0.04
2013-3-19,41.0,38.7,33.8,27.9,21.1,18.0,63,50,39,29.15,28.56,7,0,7,0.00
2013-3-20,47.3,43.9,39.4,39.5,33.7,27.1,74,67,55,28.68,28.47,0,0,0,0.47
2013-3-21,41.5,38.0,34.9,26.4,17.3,7.5,64,44,30,29.27,29.21,14,4,14,0.04
2013-3-22,42.8,37.4,31.3,14.8,11.5,7.5,50,35,28,29.41,29.24,10,1,12,0.00
2013-3-23,42.8,40.2,31.8,17.0,14.2,11.7,48,35,29,29.41,29.39,9,1,9,0.00
2013-3-24,45.1,44.1,43.5,16.8,16.1,15.1,33,32,30,29.30,29.27,6,1,7,0.00
2013-3-25,47.7,43.6,38.8,27.2,18.9,10.6,61,38,22,29.15,29.03,8,1,8,0.00
2013-3-26,54.0,53.6,53.1,14.5,13.9,13.5,21,20,20,29.09,29.06,4,0,4,0.00
2013-3-27,50.9,50.4,50.0,21.8,21.2,20.4,32,31,30,29.06,29.06,6,3,6,0.00
2013-3-28,53.2,51.1,47.1,30.1,27.8,26.5,51,41,36,29.18,29.15,0,0,0,0.00
2013-3-29,46.8,44.5,42.8,28.1,26.5,24.0,51,49,43,29.33,29.30,0,0,0,0.00
2013-3-30,60.1,49.4,42.4,24.5,22.4,20.2,48,36,24,29.36,29.27,8,2,8,0.00
2013-3-31,55.4,51.9,48.6,27.0,22.3,19.5,36,31,28,29.15,29.03,8,1,8,0.00
2013-4-1,54.9,52.7,48.7,28.9,27.7,19.3,40,38,32,29.18,29.03,8,3,8,0.00
2013-4-2,46.9,46.3,45.7,31.1,27.7,24.7,56,48,42,29.27,29.27,0,0,0,0.00
2013-4-3,52.3,51.8,51.6,26.4,26.2,25.7,37,37,36,29.18,29.18,0,0,0,0.00
2013-4-4,48.4,47.0,46.6,40.3,36.3,30.9,76,67,51,28.77,28.68,5,0,5,0.04
2013-4-5,51.6,50.3,47.5,45.0,43.4,40.0,78,77,76,28.91,28.71,0,0,0,0.04
2013-4-6,48.9,46.3,42.3,42.0,38.8,33.5,77,75,71,28.97,28.88,4,0,4,0.08
2013-4-7,44.2,42.8,41.9,31.6,25.3,18.8,63,51,39,28.88,28.77,0,0,0,1.10
2013-4-8,50.2,47.3,44.1,27.4,24.5,21.2,51,41,32,29.33,29.18,0,0,0,0.00
2013-4-9,41.2,41.1,41.0,30.7,30.2,29.8,66,65,64,29.21,29.18,0,0,0,0.00
2013-4-10,59.4,55.7,53.1,21.0,14.8,10.7,26,20,17,29.24,29.12,25,8,25,0.47
2013-4-11,47.3,43.7,36.5,19.5,17.6,15.9,44,35,29,29.36,29.27,14,2,14,0.00
2013-4-12,40.8,39.8,38.8,27.9,24.3,18.1,60,54,40,29.09,28.79,6,0,6,0.04
2013-4-13,50.5,48.7,46.6,26.3,19.3,15.6,43,31,27,28.97,28.94,15,6,15,0.12
2013-4-14,35.4,34.9,34.3,23.2,22.5,21.7,63,60,57,29.03,29.00,0,0,0,0.12
2013-4-15,45.9,44.3,42.6,27.3,22.7,19.6,51,42,37,29.21,29.15,0,0,0,0.00
2013-4-16,54.7,54.6,54.5,12.0,11.9,11.9,18,18,18,29.41,29.41,6,3,6,0.00
2013-4-17,51.4,50.7,50.5,21.8,21.7,20.9,32,32,30,29.50,29.50,10,5,10,0.00
2013-4-18,47.1,46.2,45.0,37.7,36.4,35.2,74,69,64,29.41,29.27,0,0,0,0.08
2013-4-19,51.1,49.8,49.1,45.1,43.4,42.5,80,78,78,29.21,29.21,3,0,3,0.24
2013-4-20,48.9,45.2,42.3,31.9,30.0,28.2,61,55,45,29.33,29.30,11,1,11,0.00
2013-4-21,53.8,44.7,36.3,30.5,22.9,17.4,62,43,27,29.44,29.30,17,2,17,0.00
2013-4-22,55.8,45.3,35.4,22.4,10.4,2.7,57,26,17,29.59,29.44,8,1,8,0.00
2013-4-23,58.8,55.5,39.4,14.1,12.0,2.7,21,17,17,29.50,29.39,11,5,11,0.00
2013-4-24,65.3,49.6,43.0,18.0,15.9,12.0,33,27,15,29.41,29.15,11,2,11,0.00
2013-4-25,52.2,47.0,43.5,26.0,21.9,17.3,40,37,34,29.21,29.15,0,0,0,0.00
2013-4-26,48.2,45.8,41.2,36.3,30.0,24.9,70,56,40,29.30,29.27,0,0,0,0.00
2013-4-27,52.3,51.2,50.7,32.7,31.1,28.5,47,46,42,29.27,29.27,8,1,8,0.00
2013-4-28,50.7,50.0,49.6,24.8,24.1,23.1,37,36,34,29.24,29.24,6,0,6,0.00
2013-4-29,54.5,50.6,48.9,18.0,14.8,8.9,27,24,19,29.18,29.18,17,8,17,0.00
2013-4-30,50.0,43.0,35.8,16.5,13.4,8.0,40,31,19,29.50,29.36,11,3,11,0.00
2013-5-1,45.1,44.5,44.1,14.0,13.8,13.5,29,28,28,29.62,29.62,6,1,6,0.00
2013-5-8,61.7,60.9,58.5,30.9,30.6,30.0,34,32,31,29.21,29.18,0,0,0,0.00
2013-5-9,64.4,54.4,49.5,34.1,32.4,28.8,53,44,27,29.24,29.24,0,0,0,0.00
2013-5-10,64.0,59.3,55.8,34.1,31.2,28.5,36,35,31,29.30,29.24,6,1,6,0.00
2013-5-11,61.7,59.6,57.9,35.9,34.7,32.8,43,39,34,29.24,29.21,5,0,5,0.00
2013-5-12,59.2,58.7,58.3,52.0,51.5,50.6,77,77,76,29.15,29.15,0,0,0,0.20
2013-5-13,54.7,49.7,43.3,45.7,34.1,25.2,72,56,40,29.21,29.00,7,0,7,0.28
2013-5-14,46.9,44.7,42.6,36.3,33.0,29.3,77,64,50,29.27,29.21,0,0,0,0.00
2013-5-15,51.6,51.4,51.3,38.5,37.3,35.5,61,58,54,29.12,29.09,0,0,0,0.04
2013-5-16,54.9,52.9,51.3,41.2,40.3,38.2,68,62,54,29.03,29.00,0,0,0,0.00
2013-5-17,55.4,53.1,51.4,47.6,45.9,43.8,79,76,73,29.09,29.06,0,0,0,0.20
2013-5-18,54.5,53.7,53.1,48.5,46.9,45.7,80,78,76,29.27,29.27,0,0,0,0.12
2013-5-19,60.1,54.7,45.1,31.6,29.0,26.5,58,38,29,29.50,29.44,0,0,0,0.00
2013-5-20,60.1,53.6,44.2,37.0,31.1,27.9,62,43,30,29.44,29.06,0,0,0,0.00
2013-5-21,47.3,46.9,46.6,40.1,39.7,39.3,76,76,75,28.88,28.88,0,0,0,0.32
2013-5-22,57.0,50.5,45.3,35.0,28.1,20.9,67,43,28,29.03,28.94,0,0,0,0.12
2013-5-23,56.1,49.8,44.1,36.0,30.3,25.8,71,49,32,29.06,29.00,0,0,0,0.00
2013-5-24,55.9,50.8,44.6,36.5,32.6,24.0,65,51,30,29.12,29.03,0,0,0,0.00
2013-5-25,54.5,52.2,47.5,36.7,32.2,28.8,65,47,39,29.12,29.09,0,0,0,0.24
2013-6-2,62.6,58.1,53.2,33.0,28.4,25.3,46,33,24,29.18,29.15,0,0,0,1.50
2013-6-3,67.6,65.4,63.7,34.1,30.1,28.0,33,27,25,29.21,29.21,0,0,0,0.00
2013-6-4,69.8,65.8,63.5,32.5,29.1,22.6,31,26,17,29.24,29.15,0,0,0,0.04
2013-6-5,65.5,64.1,63.5,36.4,35.9,35.3,36,35,33,29.18,29.18,0,0,0,0.04
2013-6-6,57.9,56.1,53.8,32.2,30.8,29.0,39,38,36,29.15,29.12,0,0,0,0.00
2013-6-7,64.2,60.3,58.1,34.5,32.2,30.5,37,34,30,29.24,29.21,0,0,0,0.00
2013-6-8,61.2,57.4,53.1,31.3,29.8,27.0,43,35,28,29.27,29.24,8,0,8,0.00
2013-6-9,59.2,53.3,44.2,29.0,26.4,23.3,54,36,26,29.18,29.15,14,4,14,0.00
2013-6-10,63.1,52.7,42.8,33.4,29.2,25.4,63,42,25,29.15,29.00,9,2,9,0.00
2013-6-11,55.6,53.4,51.6,35.6,32.9,28.6,54,46,37,29.15,29.09,6,1,6,0.04
2013-6-12,55.2,52.1,48.6,43.3,41.0,38.9,71,66,59,29.24,29.21,0,0,0,0.08
2013-6-13,63.3,54.0,47.3,33.1,31.7,29.4,55,44,28,29.30,29.27,11,2,11,0.00
2013-6-14,59.2,54.0,48.6,38.5,35.0,30.6,68,50,35,29.30,29.18,5,0,5,0.00
2013-6-15,67.1,61.5,47.7,39.1,30.9,26.4,72,35,22,29.18,29.06,10,1,10,0.00
2013-6-16,53.8,53.3,53.1,30.3,30.0,29.9,41,41,40,29.09,29.09,0,0,0,0.00
2013-6-22,68.0,66.4,65.1,32.1,30.9,29.4,29,26,25,29.03,29.03,5,1,5,0.16
2013-6-23,59.9,58.7,57.2,51.8,50.5,47.9,76,74,71,28.88,28.74,3,0,3,0.08
2013-6-24,57.6,56.7,55.4,51.5,49.3,45.2,81,76,65,28.79,28.71,6,1,6,0.04
2013-6-25,61.9,59.7,58.5,47.7,43.7,36.3,64,56,39,28.85,28.82,5,1,5,0.04
2013-6-26,60.4,58.4,57.0,49.8,46.2,40.9,73,64,50,29.15,28.97,5,0,5,0.08
2013-6-27,66.0,63.1,56.3,50.3,45.1,43.0,65,52,45,29.30,29.15,8,1,8,0.04
2013-6-28,70.9,63.8,60.3,52.4,48.0,39.0,69,59,33,29.33,29.21,5,0,5,0.00
2013-6-29,75.7,74.4,72.9,36.8,35.0,31.1,25,24,21,29.15,29.15,8,3,8,0.00
2013-6-30,76.3,72.7,66.0,46.9,43.1,39.7,50,36,27,29.12,29.03,8,3,8,0.00
2013-7-1,76.5,75.8,75.2,39.7,38.8,36.7,27,26,25,29.09,29.06,9,4,9,0.00
2013-7-2,76.5,65.6,57.0,44.6,40.8,29.7,63,43,18,29.24,29.15,12,2,12,0.00
2013-7-3,69.8,57.2,52.9,37.8,36.1,32.4,56,47,26,29.21,29.18,6,1,8,0.00
2013-7-4,63.5,63.3,63.1,35.8,35.5,34.7,36,35,35,29.21,29.21,3,1,3,0.00
2013-7-5,71.4,63.0,50.7,40.9,33.5,28.2,69,38,22,29.15,29.09,10,2,10,0.00
2013-7-6,73.9,65.9,59.7,38.4,32.3,27.6,44,30,18,29.09,29.00,8,2,10,0.00
2013-7-7,72.9,65.3,59.2,42.2,36.6,30.4,53,36,21,29.06,29.03,8,2,8,0.00
2013-7-8,71.1,65.9,62.4,42.5,39.1,35.0,48,38,27,29.21,29.18,6,1,6,0.00
2013-7-11,61.9,53.2,48.0,34.0,30.3,26.6,58,43,26,29.18,29.09,6,1,10,0.04
2013-7-13,64.2,63.8,63.0,30.2,29.7,29.3,29,28,27,29.27,29.27,0,0,0,0.00
2013-7-14,71.8,67.0,65.8,29.2,28.0,23.1,25,23,17,29.24,29.21,10,3,10,0.00
2013-7-16,59.9,59.8,59.7,23.0,20.1,17.6,24,21,19,29.06,29.06,6,5,6,0.00
2013-7-17,67.3,65.1,62.8,38.0,35.9,34.7,37,34,31,29.27,29.18,10,3,10,0.00
2013-7-18,72.5,64.2,55.9,36.6,35.3,32.5,46,35,23,29.33,29.27,13,4,13,0.00
2013-7-24,75.2,65.7,59.2,36.3,31.0,23.4,35,28,18,29.18,29.12,8,1,8,0.00
2013-7-25,77.2,71.0,56.7,33.1,31.2,26.5,34,23,20,29.21,29.18,5,1,5,0.00
2013-7-26,63.7,59.6,56.7,31.3,29.4,26.3,37,32,25,29.21,29.18,4,0,4,0.00
2013-7-28,61.2,57.8,55.2,37.9,35.8,33.2,49,44,36,29.06,29.06,0,0,0,0.00
2013-7-29,57.2,56.3,55.4,38.6,37.9,37.1,51,50,49,29.12,29.09,0,0,0,0.00
2013-7-30,55.4,55.3,55.0,37.6,37.5,37.3,51,51,51,29.12,29.12,0,0,0,0.00
2013-7-31,57.9,53.8,50.5,41.8,40.2,38.9,68,61,50,29.21,29.12,0,0,0,0.00
2013-8-1,53.2,52.2,51.8,43.9,40.9,39.2,71,65,62,29.15,29.15,0,0,0,0.00
2013-8-2,58.1,57.2,56.7,53.0,52.0,51.6,83,83,83,29.24,29.21,0,0,0,0.12
2013-8-3,60.3,58.4,57.2,43.1,41.5,38.8,58,54,45,29.21,29.18,0,0,0,0.00
2013-8-5,68.9,67.8,66.0,35.3,32.7,31.4,32,27,25,29.06,29.06,0,0,0,0.00
2013-8-7,77.5,72.7,64.0,40.7,32.3,25.4,42,24,15,29.12,29.09,6,1,6,0.00
2013-8-8,78.3,70.6,62.1,36.8,31.7,25.1,39,25,15,29.12,29.06,10,2,10,0.00
2013-8-9,76.1,75.6,74.8,33.4,32.7,31.4,21,21,20,28.97,28.97,0,0,0,0.00
2013-8-10,57.6,56.5,55.8,38.9,38.6,38.2,53,51,49,29.12,29.12,0,0,0,0.00
2013-8-11,65.1,64.7,64.4,35.5,35.2,34.8,34,33,33,29.15,29.15,8,2,8,0.00
2013-8-13,70.7,67.4,65.3,31.1,30.2,28.9,27,25,22,29.21,29.15,10,5,10,0.00
2013-8-14,57.2,56.8,56.3,39.8,39.0,38.4,52,51,51,29.06,29.06,5,1,5,0.00
2013-8-15,58.3,57.8,57.2,49.5,48.9,48.3,73,72,72,29.12,29.09,0,0,0,0.00
2013-8-16,75.6,67.9,61.5,42.2,38.2,32.8,49,36,21,29.12,29.12,8,2,8,0.00
2013-8-17,65.8,65.3,64.8,37.5,36.9,36.5,36,35,34,29.18,29.18,9,3,9,0.00
2013-8-18,65.8,61.7,56.7,43.6,40.3,36.6,57,46,34,29.24,29.18,9,2,9,0.00
2013-8-19,56.5,56.2,56.1,39.7,39.6,39.4,54,54,53,29.18,29.18,0,0,0,0.00
2013-8-21,78.6,71.0,61.7,28.2,24.4,18.6,27,18,13,29.18,29.09,8,1,8,0.00
2013-8-22,73.0,72.5,72.3,24.2,23.8,23.5,16,16,16,29.03,29.03,6,1,6,0.00
2013-8-23,64.2,63.3,62.6,42.6,41.6,39.1,47,45,40,28.97,28.97,6,3,6,0.00
2013-8-28,67.3,65.3,61.9,47.0,41.7,38.0,58,43,34,29.00,29.00,5,0,5,0.20
2013-8-29,67.3,64.3,61.5,59.5,57.4,54.8,83,78,70,29.06,28.97,6,0,6,0.12
2013-8-30,61.3,61.3,61.2,56.1,56.1,56.0,83,83,83,29.09,29.06,4,0,4,0.00
2013-8-31,58.6,56.8,55.2,46.3,42.2,37.8,70,59,46,29.21,28.97,0,0,0,0.00
2013-9-2,57.6,57.2,56.8,46.9,46.5,46.0,68,68,67,29.00,28.97,5,3,5,0.00
2013-9-3,65.3,59.3,56.8,55.9,51.7,49.7,80,76,68,29.15,29.06,4,1,4,0.20
2013-9-4,64.4,62.4,60.8,59.1,57.5,55.9,85,84,84,29.18,29.15,0,0,0,0.00
2013-9-11,81.0,75.3,66.0,30.5,28.4,27.0,26,18,14,29.06,29.03,5,1,5,0.04
2013-9-12,65.7,65.0,64.4,33.1,31.1,29.4,31,28,26,29.06,29.06,0,0,0,0.00
2013-9-13,67.3,64.2,63.1,45.2,43.6,41.5,52,47,42,29.06,29.03,8,4,8,0.00
2013-9-15,60.6,58.8,58.1,55.4,53.4,52.6,83,82,82,28.88,28.85,4,0,4,0.04
2013-9-17,61.7,60.6,58.8,35.4,33.8,32.4,38,36,35,28.97,28.97,8,2,8,0.12
2013-9-18,62.1,58.6,51.6,33.4,31.3,28.9,43,36,32,29.15,29.03,6,1,6,0.00
2013-9-19,53.8,52.9,52.2,41.5,35.3,28.0,67,53,37,29.15,28.88,6,2,6,0.00
2013-9-28,50.5,50.1,49.8,45.3,43.6,42.7,82,78,76,28.79,28.50,0,0,0,1.34
2013-10-1,45.3,45.2,45.0,39.8,39.7,39.5,81,81,81,28.97,28.94,6,0,6,1.57
2013-10-2,51.8,51.5,51.4,45.7,45.3,45.0,80,79,79,29.12,29.12,4,0,4,1.77
2013-10-3,57.7,50.7,45.5,52.0,42.7,38.2,81,74,67,29.53,29.44,5,0,5,0.35
2013-10-4,50.2,49.9,49.5,39.3,39.2,38.8,67,66,66,29.44,29.44,3,0,3,0.00
2013-10-5,62.8,59.6,54.3,36.0,34.3,32.1,46,39,35,29.36,29.27,0,0,0,0.00
2013-10-7,58.5,52.7,48.6,36.0,30.2,22.0,60,45,25,29.06,29.03,11,2,11,0.12
2013-10-8,50.7,47.3,44.1,26.3,24.1,20.3,49,40,30,29.18,29.09,6,1,6,0.08
2013-10-9,53.4,48.1,43.5,32.8,28.3,25.6,57,46,38,29.21,29.06,6,0,6,0.00
2013-10-10,50.4,49.5,47.3,42.0,38.8,32.8,73,67,57,29.09,29.06,5,0,5,0.04
2013-10-11,49.8,48.8,47.8,39.9,39.2,38.5,71,69,69,29.21,29.15,0,0,0,0.04
2013-10-12,50.9,47.1,44.2,43.4,40.4,38.2,79,77,76,29.30,29.21,0,0,0,0.56
2013-10-13,45.1,44.3,43.0,39.7,34.8,28.4,81,70,56,29.44,29.30,5,2,5,0.04
2013-10-14,53.4,45.5,42.3,30.9,26.3,21.7,57,47,39,29.47,29.44,5,2,5,0.00
2013-10-17,59.4,49.8,46.0,35.6,28.6,21.9,53,44,29,29.36,29.27,6,4,6,0.00
2013-10-18,52.5,47.5,46.2,33.2,31.3,27.5,59,53,38,29.27,29.24,5,1,5,0.00
2013-10-19,46.2,45.9,45.5,31.0,30.2,29.8,55,54,54,29.27,29.24,5,4,5,0.00
2013-10-20,50.5,47.2,41.2,40.8,37.2,30.7,71,68,66,29.27,29.24,4,0,4,0.00
2013-10-21,60.3,52.5,43.7,49.9,41.2,30.9,76,67,38,29.27,29.21,0,0,0,0.00
2013-10-22,58.5,51.3,47.8,32.4,30.6,25.7,54,46,29,29.15,29.12,6,1,6,0.00
2013-10-23,54.7,51.8,50.2,41.0,37.3,34.7,61,58,55,29.15,29.09,5,3,5,0.00
2013-10-24,57.2,50.3,45.3,34.8,31.8,29.8,66,50,37,29.18,29.12,6,1,6,0.00
2013-10-25,48.6,48.4,48.2,33.0,32.4,31.9,55,54,53,29.39,29.36,0,0,0,0.00
2013-10-26,49.8,49.5,49.1,40.1,38.9,37.9,69,67,65,29.41,29.39,5,2,5,0.00
2013-10-28,53.1,47.7,40.5,14.9,11.1,9.7,30,23,18,29.12,29.03,11,3,11,0.24
2013-10-29,52.7,46.8,40.1,20.8,16.4,10.7,41,29,27,29.09,29.06,6,2,6,0.00
2013-10-30,52.9,48.9,45.3,30.1,24.4,18.4,55,40,27,29.15,29.15,6,2,6,0.00
2013-10-31,51.8,46.8,42.4,37.1,33.6,30.8,63,60,56,29.27,29.12,4,1,4,0.04
2013-11-1,48.7,48.5,47.8,39.6,38.1,37.5,73,67,65,29.00,28.85,5,0,5,0.04
2013-11-2,47.8,44.4,41.5,40.0,29.2,15.0,76,57,34,28.94,28.59,13,4,13,0.31
2013-11-3,41.2,40.5,39.7,16.4,15.9,14.8,38,36,34,28.97,28.94,8,1,8,0.00
2013-11-4,41.9,38.8,34.3,24.0,22.1,19.0,53,51,48,29.18,29.15,4,1,4,0.00
2013-11-5,46.9,45.5,44.1,39.1,36.0,33.6,75,69,65,29.24,29.12,0,0,0,0.00
2013-11-6,46.4,45.0,43.9,38.8,36.1,34.5,76,71,67,29.36,29.03,0,0,0,0.04
2013-11-7,52.2,48.3,46.0,45.2,41.2,38.9,77,76,76,29.03,28.71,10,0,10,0.04
2013-11-8,46.2,46.0,45.7,39.4,39.2,38.9,77,77,77,29.06,29.06,8,0,8,0.00
2013-11-9,46.9,42.8,40.5,39.1,33.5,30.4,74,69,66,29.18,29.15,4,0,4,0.00
2013-11-11,49.8,48.6,47.1,35.1,31.9,30.4,59,52,50,29.18,29.09,0,0,0,0.00
2013-11-13,50.5,49.7,48.6,39.6,38.1,37.1,66,64,63,29.47,29.44,0,0,0,0.00
2013-11-14,47.5,42.1,37.2,32.3,30.8,29.0,74,65,49,29.21,29.12,6,0,6,0.00
2013-11-15,43.9,42.1,37.4,35.1,26.6,14.7,74,56,33,29.33,28.41,29,4,29,0.08
2013-11-16,45.1,41.0,34.7,19.5,14.0,6.1,46,33,23,29.68,29.33,27,3,27,0.00
2013-11-17,47.7,41.5,36.5,31.4,23.4,9.7,69,49,29,29.83,29.65,11,1,11,0.04
2013-11-18,45.5,42.7,40.1,36.5,33.7,30.9,75,70,63,29.83,29.48,6,0,6,0.47
2013-11-19,44.1,39.0,30.6,37.0,23.4,13.7,76,54,33,30.04,29.57,14,1,14,0.16
2013-11-20,37.2,30.5,27.0,17.5,12.0,0.7,53,46,31,30.45,30.04,6,1,6,0.00
2013-11-21,37.8,30.2,27.0,21.1,12.9,6.4,61,48,39,30.60,30.45,6,0,6,0.00
2013-11-22,38.7,32.1,28.6,18.9,15.7,12.6,58,51,39,30.60,30.39,6,0,6,0.00
2013-11-23,41.7,35.0,31.5,25.1,19.5,13.4,62,53,40,30.39,30.19,6,0,6,0.00
2013-11-24,43.5,36.5,32.7,32.9,23.9,18.6,68,60,54,30.36,30.16,0,0,0,0.00
2013-11-25,43.5,37.6,34.9,34.8,25.3,18.8,73,61,50,30.54,30.24,0,0,0,0.00
2013-11-26,41.7,37.3,34.0,28.5,21.4,12.8,64,53,41,30.57,30.24,0,0,0,0.00
2013-11-27,48.4,41.8,35.8,36.0,27.9,22.7,71,58,42,31.04,30.24,2,0,2,0.00
2013-11-28,50.2,43.9,39.2,32.3,26.8,22.5,63,51,41,31.72,30.51,6,0,6,0.00
2013-11-29,48.7,45.3,41.9,35.3,29.8,24.0,64,55,44,31.90,31.16,6,0,6,0.04
2013-11-30,47.7,44.9,43.3,39.8,36.5,32.7,76,72,64,31.90,31.40,3,0,3,0.00
2013-12-1,50.9,46.2,36.1,43.9,34.9,24.0,79,65,46,31.90,31.90,17,2,17,0.31
2013-12-2,38.8,34.8,31.3,24.0,15.4,6.5,61,46,31,31.90,30.10,17,2,17,0.00
2013-12-3,32.5,28.5,26.2,9.8,1.7,-3.0,40,31,23,30.10,30.10,9,2,9,0.00
2013-12-4,32.2,25.4,22.6,4.2,0.1,-6.3,39,33,27,30.10,30.10,8,2,8,0.00
2013-12-5,25.0,23.3,22.3,3.9,-0.7,-4.1,40,34,30,30.10,30.10,5,3,5,0.00
2013-12-14,46.9,43.3,39.7,39.1,32.9,29.7,74,67,64,30.10,30.10,8,1,8,0.00
2013-12-15,50.0,43.2,37.4,39.8,32.7,26.0,74,66,59,30.10,30.10,6,1,6,0.00
2013-12-16,42.8,37.1,34.3,26.8,23.7,21.4,68,58,48,30.10,30.10,6,1,6,0.00
2013-12-17,43.5,37.8,33.6,35.8,29.6,25.4,77,72,66,30.10,30.10,6,1,6,0.00
2013-12-18,41.2,36.7,29.8,33.5,16.4,4.5,76,46,23,30.10,30.10,15,1,15,0.04
2013-12-19,35.4,32.1,28.2,14.5,8.4,4.4,51,37,30,30.10,30.10,6,0,6,0.00
2013-12-20,36.1,33.9,32.0,27.0,20.4,8.7,71,58,36,30.10,30.10,5,0,5,0.20
2013-12-21,40.1,37.8,35.2,32.8,30.3,26.8,76,74,71,30.10,30.10,3,0,3,0.24
2013-12-22,45.0,42.5,39.7,38.5,35.9,32.8,79,77,76,30.10,30.10,6,0,6,0.12
2013-12-23,47.3,42.5,34.5,41.5,27.7,10.1,80,59,28,30.10,30.10,22,2,22,0.08
2013-12-24,41.5,36.3,32.4,28.1,20.6,16.4,62,53,37,30.10,30.10,6,0,6,0.00
2013-12-25,42.1,36.9,32.2,26.1,21.8,19.2,62,54,43,30.10,30.10,6,0,6,0.00
2013-12-26,46.2,39.8,36.3,33.4,26.1,21.7,68,58,50,30.10,30.10,5,0,5,0.00
2013-12-27,46.9,40.4,35.8,40.1,32.9,27.1,78,74,68,30.10,30.10,12,1,12,0.12
2013-12-28,43.3,38.0,34.7,36.5,30.4,26.8,78,74,69,30.10,30.10,7,1,7,0.00
2013-12-29,43.3,39.5,34.3,35.5,31.1,26.4,75,72,68,30.10,30.10,0,0,0,0.00
2013-12-30,45.7,41.0,37.9,37.0,32.0,29.0,74,70,65,30.10,30.10,6,0,6,0.00
2013-12-31,46.4,41.9,37.4,39.1,34.3,30.2,76,74,70,30.10,30.10,8,0,8,0.04
2014-1-1,43.5,40.3,36.5,36.8,33.5,29.7,78,76,75,30.10,30.10,0,0,0,0.00
2014-1-2,45.5,42.6,37.2,39.0,35.0,10.2,78,75,31,30.10,30.10,15,1,16,0.43